Time;durP1;ratioP1;P1;durP2;ratioP2;P2;SDS_P1;SDS_P2;PMS_P1;PMS_P2;Temp;Humidity;BMP_temperature;BMP_pressure;BME280_temperature;BME280_humidity;BME280_pressure;Samples;Min_cycle;Max_cycle;Signal;HPM_P1;HPM_P2
2022/05/05 00:01:33;;;;;;;8.02;1.10;;;36.10;15.00;;;;;;4972045;28;20435;-69
2022/05/05 00:04:00;;;;;;;7.03;1.20;;;36.00;14.90;;;;;;4970135;28;20027;-71
2022/05/05 00:06:27;;;;;;;8.13;1.23;;;36.00;15.00;;;;;;4972110;28;20110;-68
2022/05/05 00:08:57;;;;;;;10.63;1.52;;;36.00;15.40;;;;;;4967602;28;20533;-68
2022/05/05 00:14:23;;;;;;;8.05;1.20;;;35.90;14.70;;;;;;4974793;28;20073;-67
2022/05/05 00:17:01;;;;;;;7.03;1.40;;;35.90;15.30;;;;;;4970925;28;20027;-70
2022/05/05 00:19:30;;;;;;;6.30;1.02;;;35.90;14.90;;;;;;4972855;28;20022;-72
2022/05/05 00:21:58;;;;;;;10.80;1.60;;;35.80;14.90;;;;;;4973117;28;20471;-71
2022/05/05 00:24:25;;;;;;;12.13;2.40;;;35.70;15.40;;;;;;4970944;28;20114;-67
2022/05/05 00:26:52;;;;;;;7.05;1.50;;;35.70;15.40;;;;;;4972056;28;20034;-71
2022/05/05 00:29:18;;;;;;;23.08;8.07;;;35.80;14.50;;;;;;4967949;28;20041;-71
2022/05/05 00:31:45;;;;;;;6.65;1.80;;;35.70;14.50;;;;;;4968634;28;20038;-70
2022/05/05 00:34:12;;;;;;;10.73;2.08;;;35.60;14.80;;;;;;4966204;28;20035;-71
2022/05/05 00:36:38;;;;;;;15.30;6.82;;;35.60;14.80;;;;;;4967679;28;20396;-71
2022/05/05 00:39:07;;;;;;;12.60;3.10;;;35.60;14.60;;;;;;4971529;28;20163;-68
2022/05/05 00:41:38;;;;;;;12.82;2.53;;;35.70;14.50;;;;;;4973453;28;20035;-65
2022/05/05 00:44:08;;;;;;;25.10;2.47;;;35.90;14.50;;;;;;4953045;28;20035;-68
2022/05/05 00:46:35;;;;;;;23.92;6.15;;;35.90;14.60;;;;;;4970048;28;20069;-69
2022/05/05 00:49:02;;;;;;;6.13;2.03;;;36.20;14.70;;;;;;4968162;28;20038;-68
2022/05/05 00:51:29;;;;;;;8.45;1.90;;;36.20;14.90;;;;;;4982983;28;20031;-68
2022/05/05 00:53:56;;;;;;;8.15;1.42;;;36.10;14.40;;;;;;4969536;28;20045;-67
2022/05/05 00:56:23;;;;;;;16.73;4.32;;;36.10;14.40;;;;;;4983069;28;20034;-66
2022/05/05 00:58:51;;;;;;;20.98;2.65;;;36.30;14.90;;;;;;4972844;28;20039;-66
2022/05/05 01:01:22;;;;;;;8.40;1.10;;;36.20;14.40;;;;;;4967458;28;20401;-68
2022/05/05 01:03:49;;;;;;;10.18;1.90;;;35.90;14.50;;;;;;4970323;28;20027;-68
2022/05/05 01:06:16;;;;;;;9.35;1.70;;;35.70;14.70;;;;;;4971610;28;20043;-68
2022/05/05 01:08:44;;;;;;;9.68;1.10;;;35.60;14.40;;;;;;4975078;28;20023;-68
2022/05/05 01:11:11;;;;;;;6.75;1.75;;;35.40;14.20;;;;;;4974208;28;20042;-67
2022/05/05 01:13:39;;;;;;;6.50;1.40;;;35.30;14.50;;;;;;4975661;28;20109;-67
2022/05/05 01:16:07;;;;;;;13.15;1.35;;;35.20;14.30;;;;;;4970555;28;20113;-67
2022/05/05 01:18:34;;;;;;;6.13;1.95;;;35.10;14.60;;;;;;4975457;28;20026;-66
2022/05/05 01:21:01;;;;;;;13.60;4.28;;;35.10;14.60;;;;;;4959917;28;20033;-67
2022/05/05 01:23:27;;;;;;;13.13;2.95;;;35.10;14.90;;;;;;4971590;28;20045;-67
2022/05/05 01:28:43;;;;;;;6.37;2.00;;;35.10;14.30;;;;;;4972102;28;20037;-67
2022/05/05 01:31:10;;;;;;;10.00;3.28;;;34.90;14.60;;;;;;4978732;28;20038;-67
2022/05/05 01:33:36;;;;;;;13.70;2.08;;;35.00;14.70;;;;;;4973566;28;20069;-69
2022/05/05 01:36:04;;;;;;;15.20;1.80;;;34.90;14.30;;;;;;5023464;23;20607;-66
2022/05/05 01:38:40;;;;;;;13.63;1.50;;;34.80;14.00;;;;;;5009074;28;20488;-67
2022/05/05 01:41:07;;;;;;;;;;;34.60;14.10;;;;;;5009714;28;20044;-66
2022/05/05 01:43:34;;;;;;;;;;;34.40;14.20;;;;;;4989558;28;20018;-65
2022/05/05 01:46:00;;;;;;;5.85;1.48;;;34.20;14.40;;;;;;5009529;28;19923;-65
2022/05/05 01:48:28;;;;;;;9.60;1.88;;;34.20;14.50;;;;;;5013039;28;20498;-65
2022/05/05 01:50:54;;;;;;;9.25;1.52;;;34.10;14.60;;;;;;5016081;28;20147;-64
2022/05/05 01:53:20;;;;;;;7.65;1.33;;;34.00;14.50;;;;;;5021422;28;20041;-66
2022/05/05 01:55:47;;;;;;;12.20;2.20;;;33.90;14.60;;;;;;5019664;28;20427;-65
2022/05/05 01:58:13;;;;;;;8.18;1.40;;;33.80;15.00;;;;;;5015305;28;20040;-66
2022/05/05 02:00:40;;;;;;;9.38;1.48;;;33.50;14.70;;;;;;5018360;28;20462;-65
2022/05/05 02:03:12;;;;;;;8.45;1.35;;;33.50;14.90;;;;;;5014448;28;20043;-66
2022/05/05 02:05:46;;;;;;;7.65;1.30;;;33.50;15.10;;;;;;5013398;28;20039;-66
2022/05/05 02:08:13;;;;;;;3.85;1.77;;;33.30;15.00;;;;;;5016163;28;20083;-66
2022/05/05 02:10:39;;;;;;;7.40;1.70;;;33.20;15.30;;;;;;5015382;28;20072;-65
2022/05/05 02:13:07;;;;;;;7.97;1.90;;;33.20;15.20;;;;;;5025325;28;20450;-65
2022/05/05 02:15:34;;;;;;;13.05;4.07;;;33.10;15.20;;;;;;5012638;28;20043;-65
2022/05/05 02:18:12;;;;;;;12.70;3.90;;;32.90;15.50;;;;;;5011110;28;20487;-66
2022/05/05 02:20:39;;;;;;;8.27;3.25;;;32.90;16.50;;;;;;5012575;28;20070;-65
2022/05/05 02:23:08;;;;;;;13.80;2.33;;;32.70;16.80;;;;;;5013376;28;20057;-66
2022/05/05 02:25:34;;;;;;;89.63;11.20;;;32.60;16.00;;;;;;5015410;28;20045;-66
2022/05/05 02:28:01;;;;;;;82.72;12.57;;;32.40;18.20;;;;;;5013565;28;20042;-65
2022/05/05 02:30:28;;;;;;;81.03;7.30;;;32.30;22.50;;;;;;5014999;28;20631;-65
2022/05/05 02:32:55;;;;;;;23.23;3.17;;;32.20;26.10;;;;;;5013663;28;20467;-67
2022/05/05 02:35:22;;;;;;;22.75;3.20;;;32.10;22.80;;;;;;5011422;28;20834;-66
2022/05/05 02:40:34;;;;;;;12.38;2.40;;;31.70;24.80;;;;;;5014369;28;20314;-68
2022/05/05 02:43:00;;;;;;;22.02;3.35;;;31.60;22.30;;;;;;5013131;28;20044;-68
2022/05/05 02:45:27;;;;;;;36.30;4.20;;;31.50;24.90;;;;;;5017161;28;20072;-67
2022/05/05 02:47:54;;;;;;;27.63;3.53;;;31.40;25.20;;;;;;5010281;28;20043;-70
2022/05/05 02:50:21;;;;;;;17.60;2.65;;;31.20;25.70;;;;;;5014869;28;20079;-70
2022/05/05 02:52:48;;;;;;;30.48;3.00;;;31.10;25.90;;;;;;5017617;28;20048;-72
2022/05/05 02:55:15;;;;;;;17.75;2.53;;;31.10;25.50;;;;;;5017580;28;20078;-69
2022/05/05 02:57:41;;;;;;;25.25;3.50;;;31.00;26.40;;;;;;5012940;28;20060;-71
2022/05/05 03:00:12;;;;;;;46.80;4.10;;;30.90;25.30;;;;;;5013300;28;20076;-70
2022/05/05 03:02:41;;;;;;;39.80;4.28;;;30.70;25.30;;;;;;5015538;28;20356;-70
2022/05/05 03:05:13;;;;;;;46.08;5.65;;;30.60;25.10;;;;;;5013695;28;20049;-72
2022/05/05 03:07:41;;;;;;;64.30;8.10;;;30.50;24.60;;;;;;5013014;28;20069;-71
2022/05/05 03:10:08;;;;;;;52.05;6.97;;;30.40;23.90;;;;;;5019688;28;20495;-68
2022/05/05 03:12:34;;;;;;;67.95;7.25;;;30.30;24.40;;;;;;5014267;28;20522;-69
2022/05/05 03:15:01;;;;;;;69.10;8.23;;;30.30;23.80;;;;;;5017811;28;20457;-70
2022/05/05 03:17:27;;;;;;;49.42;6.18;;;30.20;24.10;;;;;;4995496;28;20056;-69
2022/05/05 03:19:54;;;;;;;52.58;6.35;;;30.00;24.90;;;;;;5013215;28;20050;-67
2022/05/05 03:22:20;;;;;;;54.58;10.68;;;30.00;24.60;;;;;;5011177;28;20134;-69
2022/05/05 03:24:47;;;;;;;55.72;12.98;;;29.90;24.80;;;;;;5014397;28;20070;-71
2022/05/05 03:27:13;;;;;;;180.63;27.33;;;29.90;25.30;;;;;;5014193;28;20079;-68
2022/05/05 03:29:39;;;;;;;234.43;37.70;;;29.80;25.30;;;;;;5013828;28;20520;-70
2022/05/05 03:32:06;;;;;;;139.75;21.27;;;29.70;26.90;;;;;;5010025;28;20454;-72
2022/05/05 03:34:33;;;;;;;95.03;15.00;;;29.60;24.80;;;;;;5009439;28;20098;-70
2022/05/05 03:36:59;;;;;;;73.75;14.30;;;29.50;25.80;;;;;;5011634;28;20056;-72
2022/05/05 03:39:25;;;;;;;52.25;10.38;;;29.50;25.90;;;;;;5010401;28;20112;-69
2022/05/05 03:41:52;;;;;;;45.83;7.90;;;29.50;25.80;;;;;;5013143;28;20588;-70
2022/05/05 03:44:18;;;;;;;47.30;9.48;;;29.40;25.60;;;;;;5016082;28;20052;-70
2022/05/05 03:46:44;;;;;;;51.45;7.70;;;29.40;25.60;;;;;;5012456;28;20062;-68
2022/05/05 03:49:11;;;;;;;49.70;9.75;;;29.30;25.60;;;;;;5011338;28;20077;-70
2022/05/05 03:51:37;;;;;;;59.55;9.13;;;29.20;26.10;;;;;;5011376;28;20055;-66
2022/05/05 03:54:04;;;;;;;50.10;8.55;;;29.10;26.30;;;;;;5013277;28;20491;-67
2022/05/05 03:56:30;;;;;;;73.88;8.43;;;29.00;25.90;;;;;;5013145;28;20056;-68
2022/05/05 03:58:56;;;;;;;58.10;8.13;;;28.90;24.20;;;;;;5011890;28;20205;-68
2022/05/05 04:01:23;;;;;;;79.07;7.85;;;28.80;24.30;;;;;;5012094;28;20165;-68
2022/05/05 04:03:49;;;;;;;48.17;8.52;;;28.80;26.20;;;;;;5015300;28;20100;-67
2022/05/05 04:06:17;;;;;;;61.38;7.25;;;28.70;25.10;;;;;;5013530;28;20064;-69
2022/05/05 04:08:43;;;;;;;46.75;10.43;;;28.60;24.20;;;;;;5014909;28;20063;-67
2022/05/05 04:11:10;;;;;;;48.63;6.45;;;28.50;26.00;;;;;;5015717;28;20577;-67
2022/05/05 04:13:36;;;;;;;46.55;6.40;;;28.40;24.60;;;;;;5013303;28;20059;-71
2022/05/05 04:16:03;;;;;;;44.05;6.30;;;28.30;25.00;;;;;;5013378;28;20074;-67
2022/05/05 04:18:29;;;;;;;53.38;7.78;;;28.30;24.70;;;;;;5011492;28;20061;-68
2022/05/05 04:20:56;;;;;;;73.88;7.82;;;28.30;25.60;;;;;;5011825;28;20085;-67
2022/05/05 04:23:22;;;;;;;90.00;10.20;;;28.20;25.40;;;;;;5015880;28;20164;-69
2022/05/05 04:25:49;;;;;;;60.40;7.65;;;28.10;25.40;;;;;;5014264;28;20072;-70
2022/05/05 04:28:16;;;;;;;64.82;8.10;;;28.00;26.00;;;;;;5014140;28;20061;-68
2022/05/05 04:30:43;;;;;;;61.45;8.35;;;27.90;25.70;;;;;;5014867;28;20066;-69
2022/05/05 04:33:09;;;;;;;66.57;8.40;;;27.90;26.30;;;;;;5019501;28;20118;-68
2022/05/05 04:35:36;;;;;;;67.50;9.27;;;27.70;26.10;;;;;;5012298;28;20108;-69
2022/05/05 04:38:04;;;;;;;66.60;12.30;;;27.70;25.90;;;;;;5013454;28;20063;-70
2022/05/05 04:40:30;;;;;;;69.55;11.80;;;27.70;25.70;;;;;;5016699;28;20082;-66
2022/05/05 04:42:57;;;;;;;60.65;13.00;;;27.60;25.60;;;;;;5016435;28;20484;-69
2022/05/05 04:45:24;;;;;;;80.32;13.85;;;27.60;25.80;;;;;;5016601;28;20604;-71
2022/05/05 04:47:50;;;;;;;69.28;15.20;;;27.60;26.00;;;;;;5017326;28;20084;-69
2022/05/05 04:50:17;;;;;;;60.22;15.82;;;27.50;25.70;;;;;;5016961;28;20085;-69
2022/05/05 04:52:44;;;;;;;73.75;15.90;;;27.40;25.90;;;;;;4999332;28;20058;-70
2022/05/05 04:55:11;;;;;;;79.88;19.15;;;27.30;26.20;;;;;;5018961;28;20070;-68
2022/05/05 04:57:38;;;;;;;81.65;19.38;;;27.20;26.40;;;;;;5018276;28;20068;-69
2022/05/05 05:00:07;;;;;;;71.30;18.42;;;27.10;26.50;;;;;;5019569;28;20138;-68
2022/05/05 05:02:33;;;;;;;72.15;17.10;;;27.10;26.70;;;;;;5017276;28;20059;-70
2022/05/05 05:05:00;;;;;;;66.18;14.48;;;27.00;27.30;;;;;;5024619;28;20072;-69
2022/05/05 05:07:26;;;;;;;70.68;13.13;;;26.90;27.30;;;;;;5015113;28;20068;-68
2022/05/05 05:09:53;;;;;;;60.58;12.68;;;26.90;27.30;;;;;;5015755;28;20553;-69
2022/05/05 05:12:19;;;;;;;62.03;12.48;;;26.90;27.20;;;;;;5014311;28;20159;-69
2022/05/05 05:14:45;;;;;;;73.05;11.98;;;26.80;26.90;;;;;;5026600;28;20122;-69
2022/05/05 05:17:12;;;;;;;62.45;11.43;;;26.80;27.50;;;;;;5014046;28;20111;-67
2022/05/05 05:19:38;;;;;;;57.42;9.50;;;26.80;27.60;;;;;;5020371;28;20153;-68
2022/05/05 05:22:05;;;;;;;83.28;11.48;;;26.70;27.40;;;;;;5018403;28;20087;-68
2022/05/05 05:24:32;;;;;;;76.03;12.98;;;26.70;27.30;;;;;;5000795;28;20061;-69
2022/05/05 05:26:59;;;;;;;50.40;11.25;;;26.60;27.20;;;;;;5019525;28;20522;-71
2022/05/05 05:29:25;;;;;;;65.80;14.02;;;26.60;27.80;;;;;;5016485;28;20077;-69
2022/05/05 05:31:52;;;;;;;59.85;12.68;;;26.50;27.50;;;;;;5014074;28;20076;-70
2022/05/05 05:34:18;;;;;;;75.93;13.80;;;26.50;26.90;;;;;;5016001;28;20080;-69
2022/05/05 05:36:45;;;;;;;78.93;15.77;;;26.40;27.30;;;;;;5014419;28;20106;-68
2022/05/05 05:39:11;;;;;;;64.93;16.17;;;26.40;27.40;;;;;;5015422;28;20083;-68
2022/05/05 05:41:37;;;;;;;80.72;17.13;;;26.40;27.50;;;;;;5017515;28;20538;-67
2022/05/05 05:44:04;;;;;;;103.65;17.77;;;26.30;27.40;;;;;;5017839;28;20446;-68
2022/05/05 05:46:30;;;;;;;91.95;18.17;;;26.20;27.40;;;;;;5012925;28;20069;-71
2022/05/05 05:48:57;;;;;;;114.03;19.88;;;26.30;27.60;;;;;;5014043;28;20176;-70
2022/05/05 05:51:24;;;;;;;95.22;19.38;;;26.20;27.70;;;;;;5012694;28;20074;-67
2022/05/05 05:53:51;;;;;;;164.63;71.00;;;26.10;27.60;;;;;;5021692;28;20081;-70
2022/05/05 05:56:18;;;;;;;142.63;37.33;;;26.10;27.80;;;;;;5007335;28;20064;-69
2022/05/05 05:58:45;;;;;;;108.55;41.55;;;26.10;27.70;;;;;;5024313;28;20065;-69
2022/05/05 06:01:11;;;;;;;131.95;30.77;;;26.00;27.80;;;;;;5018806;28;20095;-68
2022/05/05 06:03:56;;;;;;;126.10;22.10;;;26.00;28.20;;;;;;5017153;28;20120;-68
2022/05/05 06:06:24;;;;;;;125.10;21.77;;;26.00;28.20;;;;;;5017842;28;20156;-67
2022/05/05 06:08:51;;;;;;;102.28;20.05;;;25.90;28.30;;;;;;5014390;28;20565;-72
2022/05/05 06:11:19;;;;;;;104.30;19.67;;;25.90;28.20;;;;;;5020534;28;20069;-68
2022/05/05 06:13:45;;;;;;;104.18;19.73;;;25.80;28.40;;;;;;5022496;28;20552;-69
2022/05/05 06:16:11;;;;;;;119.00;20.75;;;25.80;28.50;;;;;;5023876;28;20076;-69
2022/05/05 06:18:38;;;;;;;121.18;20.65;;;25.80;28.60;;;;;;5006027;28;20095;-71
2022/05/05 06:21:05;;;;;;;123.20;21.27;;;25.70;28.70;;;;;;5023231;28;20088;-69
2022/05/05 06:23:32;;;;;;;107.22;21.25;;;25.70;28.80;;;;;;5017380;28;20521;-68
2022/05/05 06:25:58;;;;;;;105.43;20.00;;;25.70;28.70;;;;;;5023205;28;20070;-69
2022/05/05 06:28:25;;;;;;;116.15;21.02;;;25.60;28.90;;;;;;5022392;28;20479;-69
2022/05/05 06:30:51;;;;;;;141.63;22.80;;;25.60;29.10;;;;;;5022324;28;20130;-69
2022/05/05 06:33:17;;;;;;;145.15;25.40;;;25.60;29.40;;;;;;5021443;28;20525;-68
2022/05/05 06:35:44;;;;;;;151.68;24.08;;;25.40;29.30;;;;;;5022207;28;20623;-69
2022/05/05 06:38:10;;;;;;;105.18;21.90;;;25.40;29.40;;;;;;5021026;28;20174;-70
2022/05/05 06:40:37;;;;;;;128.80;22.83;;;25.40;29.60;;;;;;5021478;28;20180;-69
2022/05/05 06:43:03;;;;;;;132.80;22.30;;;25.40;29.30;;;;;;5023644;28;20063;-69
2022/05/05 06:45:30;;;;;;;124.10;22.02;;;25.30;29.30;;;;;;5021444;28;20068;-69
2022/05/05 06:47:58;;;;;;;113.63;22.83;;;25.30;29.70;;;;;;5021737;28;20153;-69
2022/05/05 06:50:25;;;;;;;114.07;20.33;;;25.30;29.80;;;;;;5006470;28;20090;-71
2022/05/05 06:52:52;;;;;;;144.82;23.77;;;25.20;29.80;;;;;;5020791;28;20456;-69
2022/05/05 06:55:18;;;;;;;114.38;20.17;;;25.20;30.10;;;;;;5021978;28;20074;-69
2022/05/05 06:57:46;;;;;;;116.85;21.38;;;25.20;30.40;;;;;;5003479;28;20068;-70
2022/05/05 07:00:13;;;;;;;120.85;21.27;;;25.10;30.50;;;;;;5003498;28;20095;-69
2022/05/05 07:02:40;;;;;;;111.45;22.27;;;25.10;30.80;;;;;;5022364;28;20078;-68
2022/05/05 07:05:26;;;;;;;126.25;21.80;;;25.10;30.50;;;;;;5023487;28;20081;-68
2022/05/05 07:07:53;;;;;;;132.52;23.33;;;25.00;31.00;;;;;;5019008;28;20087;-72
2022/05/05 07:13:06;;;;;;;147.43;23.15;;;24.90;30.70;;;;;;5020129;28;20079;-65
2022/05/05 07:15:33;;;;;;;104.38;23.52;;;24.90;30.80;;;;;;5005401;28;20085;-65
2022/05/05 07:18:00;;;;;;;120.25;21.83;;;24.90;30.80;;;;;;5022197;28;20110;-65
2022/05/05 07:20:26;;;;;;;158.05;29.70;;;24.80;30.70;;;;;;5019555;28;20999;-66
2022/05/05 07:22:53;;;;;;;112.78;29.05;;;24.80;30.40;;;;;;5021705;28;20144;-65
2022/05/05 07:25:20;;;;;;;124.50;30.42;;;24.70;30.00;;;;;;5022786;28;20072;-65
2022/05/05 07:27:46;;;;;;;134.52;31.58;;;24.70;29.70;;;;;;5024091;28;20065;-71
2022/05/05 07:30:14;;;;;;;123.43;30.73;;;24.80;29.40;;;;;;5021065;28;20103;-71
2022/05/05 07:32:41;;;;;;;133.32;29.25;;;24.70;29.70;;;;;;5019417;28;20432;-73
2022/05/05 07:35:09;;;;;;;126.35;30.95;;;24.70;29.70;;;;;;5020227;28;20159;-69
2022/05/05 07:37:37;;;;;;;146.20;31.95;;;24.70;29.90;;;;;;5022176;28;20492;-70
2022/05/05 07:40:05;;;;;;;145.57;31.65;;;24.70;30.00;;;;;;5020982;28;20071;-70
2022/05/05 07:42:31;;;;;;;122.93;31.05;;;24.70;31.00;;;;;;4992366;28;20095;-71
2022/05/05 07:44:57;;;;;;;127.10;31.58;;;24.70;30.60;;;;;;5020439;28;20137;-70
2022/05/05 07:47:25;;;;;;;135.85;30.38;;;24.60;30.90;;;;;;5020073;28;20095;-69
2022/05/05 07:49:52;;;;;;;109.82;29.63;;;24.60;30.90;;;;;;5021302;28;20533;-70
2022/05/05 07:52:18;;;;;;;117.25;29.58;;;24.60;30.90;;;;;;4999467;28;20083;-70
2022/05/05 07:54:45;;;;;;;116.07;28.77;;;24.50;30.70;;;;;;5020796;28;20166;-66
2022/05/05 07:57:14;;;;;;;122.63;29.10;;;24.50;30.80;;;;;;5020853;28;20087;-70
2022/05/05 07:59:45;;;;;;;123.00;24.48;;;24.40;30.20;;;;;;5022875;28;20145;-71
2022/05/05 08:02:14;;;;;;;102.43;24.10;;;24.40;30.00;;;;;;5018239;28;20561;-71
2022/05/05 08:04:44;;;;;;;98.93;22.70;;;24.40;30.00;;;;;;5021545;28;20083;-70
2022/05/05 08:07:12;;;;;;;113.53;22.85;;;24.40;29.80;;;;;;5024105;28;20133;-70
2022/05/05 08:09:39;;;;;;;81.15;17.73;;;24.40;29.70;;;;;;5021953;28;20063;-71
2022/05/05 08:12:07;;;;;;;90.95;18.27;;;24.40;29.60;;;;;;5019637;28;20073;-69
2022/05/05 08:14:34;;;;;;;86.93;17.42;;;24.50;29.40;;;;;;5023317;28;20083;-71
2022/05/05 08:17:00;;;;;;;75.15;16.08;;;24.50;29.50;;;;;;5036379;28;20075;-70
2022/05/05 08:19:26;;;;;;;78.72;15.45;;;24.30;29.20;;;;;;5023562;28;20102;-71
2022/05/05 08:21:53;;;;;;;78.57;15.32;;;24.30;29.40;;;;;;5030624;28;20547;-72
2022/05/05 08:29:49;;;;;;;62.00;14.30;;;24.30;29.30;;;;;;5027241;28;20074;-70
2022/05/05 08:32:15;;;;;;;78.93;14.52;;;24.30;29.80;;;;;;5021258;28;20139;-71
2022/05/05 08:34:42;;;;;;;74.00;16.33;;;24.20;29.80;;;;;;5024152;28;20501;-70
2022/05/05 08:37:08;;;;;;;57.35;14.65;;;24.10;29.80;;;;;;5023568;28;20089;-70
2022/05/05 08:39:34;;;;;;;54.63;14.52;;;24.10;30.10;;;;;;5022285;28;20087;-70
2022/05/05 08:42:04;;;;;;;69.50;15.32;;;24.00;30.50;;;;;;5022126;28;20538;-70
2022/05/05 08:44:30;;;;;;;62.45;14.75;;;24.00;30.20;;;;;;5020056;28;20074;-71
2022/05/05 08:46:57;;;;;;;64.25;15.80;;;23.90;30.00;;;;;;5023232;28;20072;-72
2022/05/05 08:49:28;;;;;;;68.57;14.75;;;23.90;30.20;;;;;;5023524;28;20091;-70
2022/05/05 08:51:55;;;;;;;73.38;16.05;;;23.90;30.00;;;;;;5020535;28;20085;-71
2022/05/05 08:54:26;;;;;;;65.05;15.02;;;23.90;30.00;;;;;;5027129;28;20094;-71
2022/05/05 08:56:54;;;;;;;65.57;13.65;;;23.80;30.30;;;;;;5040798;28;20100;-70
2022/05/05 08:59:22;;;;;;;71.35;15.57;;;23.80;30.50;;;;;;5022386;28;20081;-69
2022/05/05 09:01:51;;;;;;;81.32;15.70;;;23.80;30.20;;;;;;5021406;28;20101;-69
2022/05/05 09:04:21;;;;;;;71.75;15.40;;;23.70;30.40;;;;;;5020696;28;20079;-71
2022/05/05 09:06:52;;;;;;;66.97;15.85;;;23.70;30.80;;;;;;5023637;28;20528;-70
2022/05/05 09:09:33;;;;;;;81.82;15.23;;;23.70;30.90;;;;;;5004145;28;20108;-69
2022/05/05 09:12:12;;;;;;;68.18;15.18;;;23.70;31.30;;;;;;5020364;28;20066;-69
2022/05/05 09:14:48;;;;;;;59.97;14.65;;;23.70;31.20;;;;;;5023005;28;20076;-69
2022/05/05 09:17:21;;;;;;;62.75;13.82;;;23.60;31.50;;;;;;5022544;28;20100;-71
2022/05/05 09:19:56;;;;;;;58.55;13.85;;;23.60;31.80;;;;;;5023887;28;20115;-70
2022/05/05 09:22:24;;;;;;;56.70;13.02;;;23.60;31.60;;;;;;5019960;28;20147;-70
2022/05/05 09:24:52;;;;;;;58.25;13.77;;;23.50;31.40;;;;;;5023561;28;20085;-70
2022/05/05 09:27:33;;;;;;;52.60;12.30;;;23.50;31.20;;;;;;5004199;28;20073;-70
2022/05/05 09:30:09;;;;;;;51.40;12.10;;;23.50;31.70;;;;;;5024943;28;20068;-70
2022/05/05 09:32:53;;;;;;;48.63;12.55;;;23.50;31.40;;;;;;5026942;28;20171;-72
2022/05/05 09:35:20;;;;;;;44.72;11.50;;;23.50;31.80;;;;;;5005699;28;20123;-72
2022/05/05 09:37:52;;;;;;;54.53;11.73;;;23.40;31.80;;;;;;5024620;28;20077;-71
2022/05/05 09:40:20;;;;;;;44.40;11.05;;;23.40;31.60;;;;;;5005191;28;20103;-70
2022/05/05 09:42:52;;;;;;;48.92;11.90;;;23.30;31.60;;;;;;5023304;28;20525;-72
2022/05/05 09:45:20;;;;;;;54.83;10.85;;;23.30;31.70;;;;;;5021675;28;20073;-70
2022/05/05 09:47:54;;;;;;;50.47;11.82;;;23.30;31.80;;;;;;5020103;28;20091;-64
2022/05/05 09:50:22;;;;;;;42.85;10.45;;;23.70;32.00;;;;;;5003608;28;20129;-63
2022/05/05 09:58:22;;;;;;;34.40;6.85;;;24.20;31.30;;;;;;5022757;28;19958;-63
2022/05/05 10:01:00;;;;;;;31.10;7.00;;;24.30;30.70;;;;;;5019369;28;20169;-62
2022/05/05 10:04:00;;;;;;;29.48;5.72;;;24.40;30.60;;;;;;5020538;28;20082;-63
2022/05/05 10:06:41;;;;;;;23.13;4.38;;;24.50;30.00;;;;;;5007803;28;20425;-62
2022/05/05 10:09:09;;;;;;;29.08;4.68;;;24.70;29.60;;;;;;5018585;28;20160;-65
2022/05/05 10:11:36;;;;;;;19.52;4.20;;;24.70;29.60;;;;;;5022743;28;20131;-61
2022/05/05 10:14:05;;;;;;;30.05;4.85;;;24.80;29.50;;;;;;4989014;28;20103;-62
2022/05/05 10:16:31;;;;;;;22.23;5.00;;;24.80;29.70;;;;;;5022107;28;20111;-63
2022/05/05 10:18:59;;;;;;;12.75;4.03;;;24.70;29.90;;;;;;5018750;28;20074;-65
2022/05/05 10:21:42;;;;;;;23.40;4.65;;;24.70;30.00;;;;;;5020979;28;20161;-63
2022/05/05 10:24:25;;;;;;;17.85;4.07;;;24.60;30.20;;;;;;5018797;28;20534;-62
2022/05/05 10:27:01;;;;;;;25.27;4.63;;;24.70;30.40;;;;;;5025563;28;20117;-62
2022/05/05 10:29:35;;;;;;;18.00;4.25;;;24.70;30.50;;;;;;5023668;28;20120;-63
2022/05/05 10:32:25;;;;;;;25.02;5.78;;;24.60;30.90;;;;;;5021844;28;20126;-63
2022/05/05 10:35:12;;;;;;;20.63;4.45;;;24.60;30.60;;;;;;5012975;28;20138;-64
2022/05/05 10:37:39;;;;;;;27.75;5.18;;;24.50;31.60;;;;;;5022831;28;20122;-62
2022/05/05 10:40:10;;;;;;;25.65;4.60;;;24.50;31.80;;;;;;5020784;28;20079;-62
2022/05/05 10:42:45;;;;;;;22.75;5.15;;;24.50;31.20;;;;;;5022424;28;20087;-63
2022/05/05 10:45:18;;;;;;;22.42;4.88;;;24.40;31.60;;;;;;5020737;28;20154;-63
2022/05/05 10:48:00;;;;;;;17.45;5.28;;;24.30;32.20;;;;;;5022756;28;20073;-63
2022/05/05 10:51:02;;;;;;;18.25;4.63;;;24.30;32.20;;;;;;5022561;28;20083;-64
2022/05/05 10:53:36;;;;;;;24.48;4.60;;;24.30;31.70;;;;;;5019829;28;20107;-63
2022/05/05 10:56:05;;;;;;;10.25;3.58;;;24.20;31.30;;;;;;5019363;28;20111;-64
2022/05/05 10:58:59;;;;;;;15.05;3.97;;;24.20;31.30;;;;;;5020997;28;20070;-62
2022/05/05 11:01:29;;;;;;;19.17;4.40;;;24.20;31.20;;;;;;5020967;28;20462;-64
2022/05/05 11:04:06;;;;;;;13.02;3.55;;;24.20;31.20;;;;;;5023888;28;20464;-63
2022/05/05 11:06:33;;;;;;;19.98;5.30;;;24.10;31.80;;;;;;5022416;28;20083;-63
2022/05/05 11:09:00;;;;;;;17.15;3.90;;;24.10;31.80;;;;;;5020918;28;20069;-63
2022/05/05 11:11:42;;;;;;;18.80;3.80;;;23.90;31.60;;;;;;5021016;28;20080;-61
2022/05/05 11:23:30;;;;;;;17.77;3.73;;;23.70;31.90;;;;;;4989770;28;20076;-62
2022/05/05 11:25:57;;;;;;;14.73;3.30;;;23.70;31.90;;;;;;4974574;28;20334;-62
2022/05/05 11:28:27;;;;;;;21.42;3.72;;;23.60;32.30;;;;;;4990982;28;20080;-63
2022/05/05 11:30:53;;;;;;;16.42;3.35;;;23.60;32.50;;;;;;4973831;28;20176;-65
2022/05/05 11:33:20;;;;;;;17.98;3.78;;;23.40;32.90;;;;;;4975454;28;20543;-63
2022/05/05 11:36:02;;;;;;;17.90;3.72;;;23.40;33.80;;;;;;4989168;28;20203;-65
2022/05/05 11:38:29;;;;;;;15.45;3.97;;;23.30;33.90;;;;;;4973217;28;20227;-63
2022/05/05 11:41:01;;;;;;;24.63;4.07;;;23.20;33.90;;;;;;4991323;28;20207;-63
2022/05/05 11:46:14;;;;;;;26.55;4.22;;;23.00;34.20;;;;;;4990448;28;20454;-64
2022/05/05 11:48:43;;;;;;;17.27;3.72;;;23.00;34.10;;;;;;5010723;28;20104;-66
2022/05/05 11:51:10;;;;;;;21.60;3.92;;;23.00;33.70;;;;;;5020105;28;20080;-64
2022/05/05 11:53:37;;;;;;;19.63;4.05;;;23.00;33.80;;;;;;5003423;28;20073;-63
2022/05/05 11:56:04;;;;;;;18.45;3.83;;;22.90;34.00;;;;;;5019713;28;20907;-63
2022/05/05 12:04:19;;;;;;;20.27;3.20;;;22.90;33.90;;;;;;4972858;28;20082;-62
2022/05/05 12:06:45;;;;;;;19.35;3.38;;;22.80;34.40;;;;;;4954415;28;20096;-63
2022/05/05 12:09:13;;;;;;;13.88;3.00;;;22.70;33.90;;;;;;4954776;28;20147;-63
2022/05/05 12:11:42;;;;;;;13.45;3.45;;;22.70;34.20;;;;;;4969202;28;20124;-63
2022/05/05 12:14:10;;;;;;;16.55;3.25;;;22.60;34.30;;;;;;4984975;28;20139;-62
2022/05/05 12:16:37;;;;;;;21.38;3.35;;;22.60;34.00;;;;;;4970443;28;20172;-63
2022/05/05 12:19:14;;;;;;;30.10;3.90;;;22.60;34.60;;;;;;4967857;28;20169;-64
2022/05/05 12:21:56;;;;;;;;;;;22.50;35.10;;;;;;4967006;28;20147;-63
2022/05/05 12:24:24;;;;;;;21.70;4.22;;;22.50;35.60;;;;;;4969771;28;20047;-64
2022/05/05 12:27:06;;;;;;;19.15;3.63;;;22.40;36.30;;;;;;4969610;28;20085;-65
2022/05/05 12:29:44;;;;;;;22.90;3.95;;;22.40;36.00;;;;;;4971120;28;20081;-66
2022/05/05 12:32:17;;;;;;;20.13;4.30;;;22.40;36.40;;;;;;4987667;28;20095;-64
2022/05/05 12:34:46;;;;;;;27.65;3.80;;;22.30;36.40;;;;;;4983677;28;20232;-65
2022/05/05 12:37:16;;;;;;;20.25;3.42;;;22.30;36.40;;;;;;4968326;28;20076;-63
2022/05/05 12:40:01;;;;;;;22.42;4.13;;;22.20;36.70;;;;;;5000322;28;20103;-63
2022/05/05 12:42:39;;;;;;;26.63;4.03;;;22.20;36.80;;;;;;5019774;28;20419;-64
2022/05/05 12:45:18;;;;;;;20.75;4.00;;;22.00;37.00;;;;;;5019752;28;20077;-63
2022/05/05 12:47:49;;;;;;;24.15;4.65;;;22.00;37.10;;;;;;5017541;28;20082;-65
2022/05/05 12:50:46;;;;;;;36.28;5.00;;;21.90;37.30;;;;;;5021850;28;20091;-63
2022/05/05 13:01:49;;;;;;;27.20;5.07;;;21.80;38.90;;;;;;5024400;28;20091;-64
2022/05/05 13:04:18;;;;;;;33.28;4.45;;;21.60;39.20;;;;;;5019024;28;20081;-64
2022/05/05 13:06:48;;;;;;;35.78;4.95;;;21.60;39.50;;;;;;5006878;28;20065;-63
2022/05/05 13:09:15;;;;;;;31.00;4.47;;;21.50;39.50;;;;;;5023663;28;20097;-64
2022/05/05 13:11:51;;;;;;;33.17;5.00;;;21.40;39.40;;;;;;5022988;28;20105;-66
2022/05/05 13:14:18;;;;;;;28.52;4.82;;;21.40;39.80;;;;;;5024315;28;20075;-63
2022/05/05 13:16:45;;;;;;;35.67;4.90;;;21.40;39.60;;;;;;5023909;28;20143;-65
2022/05/05 13:19:11;;;;;;;38.33;5.88;;;21.40;40.10;;;;;;5022080;28;20072;-64
2022/05/05 13:21:41;;;;;;;31.38;5.15;;;21.40;40.50;;;;;;5025201;28;20180;-63
2022/05/05 13:24:09;;;;;;;34.15;4.70;;;21.30;40.60;;;;;;5022689;28;20077;-64
2022/05/05 13:26:44;;;;;;;33.60;4.60;;;21.40;40.70;;;;;;5023838;28;20336;-63
2022/05/05 13:29:11;;;;;;;46.38;5.07;;;21.40;41.20;;;;;;5023844;28;20411;-64
2022/05/05 13:31:38;;;;;;;41.83;5.28;;;21.40;42.30;;;;;;5021925;28;20073;-64